createdAt,value
2023-04-30T00:00:36.876Z,74.67
2023-04-30T00:03:04.241Z,74.88
2023-04-30T00:05:30.884Z,75.05
2023-04-30T00:07:57.312Z,74.97
2023-04-30T00:10:23.827Z,74.80
2023-04-30T00:12:50.367Z,74.70
2023-04-30T00:15:16.765Z,75.31
2023-04-30T00:17:43.212Z,75.04
2023-04-30T00:20:10.661Z,75.03
2023-04-30T00:22:37.253Z,75.25
2023-04-30T00:25:03.935Z,75.16
2023-04-30T00:27:31.552Z,75.53
2023-04-30T00:29:58.471Z,75.61
2023-04-30T00:32:25.075Z,75.66
2023-04-30T00:34:51.720Z,75.87
2023-04-30T00:37:18.229Z,75.62
2023-04-30T00:39:44.718Z,76.30
2023-04-30T00:42:11.266Z,75.94
2023-04-30T00:44:37.727Z,76.17
2023-04-30T00:47:04.141Z,76.42
2023-04-30T00:49:30.821Z,76.39
2023-04-30T00:51:57.252Z,75.91
2023-04-30T00:54:24.489Z,76.26
2023-04-30T00:56:50.968Z,76.67
2023-04-30T00:59:17.467Z,76.81
2023-04-30T01:01:44.093Z,76.79
2023-04-30T01:04:10.760Z,76.88
2023-04-30T01:06:37.513Z,76.34
2023-04-30T01:09:04.048Z,76.43
2023-04-30T01:11:48.515Z,77.80
2023-04-30T01:14:25.884Z,77.53
2023-04-30T01:17:30.813Z,77.68
2023-04-30T01:19:57.796Z,77.53
2023-04-30T01:22:27.166Z,77.80
2023-04-30T01:25:31.284Z,78.39
2023-04-30T01:28:13.512Z,78.37
2023-04-30T01:30:44.597Z,78.00
2023-04-30T01:33:12.268Z,77.77
2023-04-30T01:35:59.673Z,78.43
2023-04-30T01:38:51.049Z,79.34
2023-04-30T01:41:24.057Z,78.96
2023-04-30T01:44:01.048Z,79.31
2023-04-30T01:46:31.135Z,79.24
2023-04-30T01:49:25.415Z,79.49
2023-04-30T01:51:58.475Z,78.59
2023-04-30T01:54:38.500Z,78.51
2023-04-30T01:57:15.335Z,78.19
2023-04-30T01:59:43.033Z,77.59
2023-04-30T02:02:09.474Z,77.49
2023-04-30T02:04:36.329Z,77.65
2023-04-30T02:07:02.801Z,77.81
2023-04-30T02:09:29.287Z,77.34
2023-04-30T02:11:57.783Z,77.59
2023-04-30T02:14:25.850Z,77.50
2023-04-30T02:16:52.295Z,77.47
2023-04-30T02:19:18.767Z,77.77
2023-04-30T02:21:45.306Z,78.21
2023-04-30T02:24:11.765Z,77.56
2023-04-30T02:26:38.154Z,78.12
2023-04-30T02:29:04.602Z,78.15
2023-04-30T02:31:31.870Z,78.02
2023-04-30T02:33:58.265Z,78.38
2023-04-30T02:36:24.730Z,78.58
2023-04-30T02:38:51.185Z,78.84
2023-04-30T02:41:17.646Z,78.74
2023-04-30T02:43:44.281Z,78.67
2023-04-30T02:46:10.686Z,78.83
2023-04-30T02:48:37.107Z,78.05
2023-04-30T02:51:04.640Z,78.44
2023-04-30T02:53:31.263Z,78.73
2023-04-30T02:55:59.185Z,78.63
2023-04-30T02:58:26.626Z,78.34
2023-04-30T03:00:53.121Z,78.25
2023-04-30T03:03:19.642Z,78.61
2023-04-30T03:05:46.088Z,78.43
2023-04-30T03:08:12.886Z,77.98
2023-04-30T03:10:39.366Z,78.19
2023-04-30T03:13:05.868Z,78.57
2023-04-30T03:15:35.393Z,78.81
2023-04-30T03:18:01.909Z,78.90
2023-04-30T03:20:28.361Z,78.91
2023-04-30T03:22:54.984Z,78.67
2023-04-30T03:25:21.436Z,78.82
2023-04-30T03:27:47.846Z,79.18
2023-04-30T03:30:14.263Z,79.18
2023-04-30T03:32:40.835Z,79.14
2023-04-30T03:35:08.877Z,79.27
2023-04-30T03:37:35.270Z,79.31
2023-04-30T03:40:01.823Z,79.39
2023-04-30T03:42:28.287Z,79.27
2023-04-30T03:44:54.718Z,79.10
2023-04-30T03:47:21.207Z,79.12
2023-04-30T03:49:55.001Z,78.96
2023-04-30T03:52:22.471Z,78.93
2023-04-30T03:54:48.946Z,79.13
2023-04-30T03:57:15.556Z,79.28
2023-04-30T03:59:42.112Z,78.82
2023-04-30T04:02:08.781Z,79.02
2023-04-30T04:04:35.462Z,78.50
2023-04-30T04:07:03.373Z,79.15
2023-04-30T04:09:30.061Z,78.66
2023-04-30T04:11:56.594Z,79.06
2023-04-30T04:14:23.067Z,79.26
2023-04-30T04:16:49.451Z,78.62
2023-04-30T04:19:15.890Z,79.37
2023-04-30T04:21:42.366Z,79.66
2023-04-30T04:24:09.564Z,79.61
2023-04-30T04:26:36.718Z,79.80
2023-04-30T04:29:04.651Z,79.88
2023-04-30T04:31:31.973Z,80.09
2023-04-30T04:34:00.355Z,80.02
2023-04-30T04:36:27.735Z,79.41
2023-04-30T04:38:55.706Z,79.34
2023-04-30T04:41:22.977Z,79.72
2023-04-30T04:43:49.407Z,79.90
2023-04-30T04:46:16.529Z,79.80
2023-04-30T04:48:43.321Z,79.40
2023-04-30T04:51:10.912Z,79.26
2023-04-30T04:53:37.401Z,79.06
2023-04-30T04:56:04.020Z,79.23
2023-04-30T04:58:30.493Z,79.48
2023-04-30T05:00:57.630Z,79.47
2023-04-30T05:03:24.197Z,79.57
2023-04-30T05:05:50.689Z,79.64
2023-04-30T05:08:17.203Z,79.64
2023-04-30T05:10:43.629Z,79.56
2023-04-30T05:13:10.043Z,79.75
2023-04-30T05:15:37.112Z,79.43
2023-04-30T05:18:03.718Z,79.84
2023-04-30T05:20:30.241Z,79.59
2023-04-30T05:22:56.680Z,79.03
2023-04-30T05:25:23.462Z,78.81
2023-04-30T05:27:50.154Z,78.80
2023-04-30T05:30:16.622Z,78.55
2023-04-30T05:32:43.488Z,78.45
2023-04-30T05:35:10.126Z,78.21
2023-04-30T05:37:36.607Z,77.77
2023-04-30T05:40:03.339Z,77.75
2023-04-30T05:42:29.796Z,77.49
2023-04-30T05:44:56.205Z,77.57
2023-04-30T05:47:22.657Z,77.47
2023-04-30T05:49:49.406Z,76.99
2023-04-30T05:52:17.428Z,76.98
2023-04-30T05:54:43.885Z,76.85
2023-04-30T05:57:10.359Z,76.63
2023-04-30T05:59:36.852Z,76.33
2023-04-30T06:02:03.403Z,76.58
2023-04-30T06:04:29.872Z,76.15
2023-04-30T06:06:56.723Z,76.36
2023-04-30T06:09:23.157Z,76.29
2023-04-30T06:11:51.914Z,76.42
2023-04-30T06:14:19.017Z,76.09
2023-04-30T06:16:45.823Z,75.99
2023-04-30T06:19:13.008Z,76.44
2023-04-30T06:21:39.544Z,76.59
2023-04-30T06:24:06.381Z,76.03
2023-04-30T06:26:32.871Z,75.90
2023-04-30T06:28:59.353Z,75.98
2023-04-30T06:31:26.359Z,75.45
2023-04-30T06:33:52.818Z,75.49
2023-04-30T06:36:19.619Z,75.17
2023-04-30T06:38:47.325Z,75.46
2023-04-30T06:41:14.442Z,74.56
2023-04-30T06:43:40.860Z,75.23
2023-04-30T06:46:07.306Z,74.48
2023-04-30T06:48:33.783Z,74.08
2023-04-30T06:51:00.517Z,74.03
2023-04-30T06:53:26.910Z,73.91
2023-04-30T06:55:53.494Z,73.96
2023-04-30T06:58:19.945Z,73.70
2023-04-30T07:00:46.518Z,72.88
2023-04-30T07:03:13.101Z,72.11
2023-04-30T07:05:39.737Z,71.93
2023-04-30T07:08:06.915Z,72.30
2023-04-30T07:10:33.445Z,71.70
2023-04-30T07:12:59.863Z,71.12
2023-04-30T07:15:26.297Z,70.36
2023-04-30T07:17:52.786Z,70.48
2023-04-30T07:20:19.352Z,70.35
2023-04-30T07:22:46.214Z,69.91
2023-04-30T07:25:13.602Z,69.23
2023-04-30T07:27:40.864Z,69.19
2023-04-30T07:30:09.175Z,68.54
2023-04-30T07:32:36.028Z,67.84
2023-04-30T07:35:02.666Z,67.71
2023-04-30T07:37:29.256Z,67.73
2023-04-30T07:39:56.073Z,67.23
2023-04-30T07:42:23.229Z,67.02
2023-04-30T07:44:49.824Z,66.05
2023-04-30T07:47:16.263Z,65.38
2023-04-30T07:49:42.690Z,65.08
2023-04-30T07:52:11.086Z,64.96
2023-04-30T07:54:38.704Z,64.62
2023-04-30T07:57:05.603Z,63.80
2023-04-30T07:59:32.426Z,63.48
2023-04-30T08:01:59.129Z,63.23
2023-04-30T08:04:25.851Z,62.62
2023-04-30T08:06:52.567Z,62.00
2023-04-30T08:09:19.059Z,60.93
2023-04-30T08:11:45.507Z,60.40
2023-04-30T08:14:11.897Z,60.46
2023-04-30T08:16:38.468Z,59.58
2023-04-30T08:19:05.182Z,59.00
2023-04-30T08:21:31.651Z,58.75
2023-04-30T08:23:58.107Z,58.29
2023-04-30T08:26:25.766Z,58.28
2023-04-30T08:28:52.201Z,58.18
2023-04-30T08:31:18.716Z,58.52
2023-04-30T08:33:45.575Z,57.08
2023-04-30T08:36:12.027Z,57.21
2023-04-30T08:38:38.436Z,56.65
2023-04-30T08:41:11.228Z,56.56
2023-04-30T08:43:38.345Z,56.84
2023-04-30T08:46:05.855Z,56.45
2023-04-30T08:48:32.648Z,56.35
2023-04-30T08:51:03.180Z,55.43
2023-04-30T08:53:31.458Z,53.38
2023-04-30T08:55:58.328Z,53.50
2023-04-30T08:58:24.850Z,53.38
2023-04-30T09:00:51.303Z,53.07
2023-04-30T09:03:17.844Z,52.92
2023-04-30T09:05:44.402Z,52.83
2023-04-30T09:08:17.524Z,51.65
2023-04-30T09:10:44.093Z,51.75
2023-04-30T09:13:12.010Z,51.06
2023-04-30T09:15:41.492Z,51.09
2023-04-30T09:18:17.718Z,51.12
2023-04-30T09:20:56.118Z,48.09
2023-04-30T09:23:22.661Z,50.50
2023-04-30T09:25:49.255Z,48.98
2023-04-30T09:28:16.547Z,47.40
2023-04-30T09:30:43.293Z,45.97
2023-04-30T09:33:12.023Z,44.90
2023-04-30T09:35:41.476Z,43.93
2023-04-30T09:38:08.086Z,42.57
2023-04-30T09:40:41.617Z,39.28
2023-04-30T09:43:08.591Z,41.41
2023-04-30T09:45:48.372Z,38.94
2023-04-30T09:48:22.290Z,37.28
2023-04-30T09:50:49.556Z,39.12
2023-04-30T09:53:18.044Z,39.50
2023-04-30T09:55:49.014Z,37.67
2023-04-30T09:58:17.018Z,38.16
2023-04-30T10:00:45.846Z,38.00
2023-04-30T10:03:14.188Z,37.84
2023-04-30T10:05:48.542Z,36.91
2023-04-30T10:08:33.541Z,37.48
2023-04-30T10:11:03.743Z,36.72
2023-04-30T10:13:47.404Z,34.79
2023-04-30T10:16:36.837Z,34.29
2023-04-30T10:19:14.125Z,35.01
2023-04-30T10:21:42.668Z,35.54
2023-04-30T10:24:10.615Z,34.57
2023-04-30T10:26:37.472Z,34.22
2023-04-30T10:29:03.928Z,33.99
2023-04-30T10:31:30.819Z,34.42
2023-04-30T10:34:00.416Z,34.44
2023-04-30T10:36:44.538Z,33.77
2023-04-30T10:39:15.651Z,33.72
2023-04-30T10:41:45.198Z,34.52
2023-04-30T10:44:11.777Z,34.85
2023-04-30T10:46:38.455Z,35.36
2023-04-30T10:49:05.355Z,34.81
2023-04-30T10:51:47.972Z,36.58
2023-04-30T10:54:24.977Z,37.08
2023-04-30T10:56:52.676Z,36.83
2023-04-30T10:59:19.924Z,37.04
2023-04-30T11:01:57.147Z,37.73
2023-04-30T11:04:24.222Z,37.13
2023-04-30T11:06:56.439Z,38.00
2023-04-30T11:09:39.940Z,38.55
2023-04-30T11:12:20.802Z,37.33
2023-04-30T11:14:47.410Z,38.48
2023-04-30T11:17:22.795Z,38.05
2023-04-30T11:19:53.289Z,39.71
2023-04-30T11:22:21.763Z,38.81
2023-04-30T11:25:03.598Z,39.24
2023-04-30T11:27:31.919Z,38.46
2023-04-30T11:29:59.226Z,38.13
2023-04-30T11:32:27.568Z,37.84
2023-04-30T11:34:55.057Z,37.78
2023-04-30T11:37:39.096Z,38.74
2023-04-30T11:40:07.964Z,39.41
2023-04-30T11:42:35.003Z,39.25
2023-04-30T11:45:04.929Z,38.26
2023-04-30T11:47:46.181Z,39.25
2023-04-30T11:50:15.340Z,38.44
2023-04-30T11:52:43.323Z,38.60
2023-04-30T11:55:17.580Z,37.85
2023-04-30T11:57:46.542Z,38.09
2023-04-30T12:00:17.953Z,37.85
2023-04-30T12:02:46.203Z,37.95
2023-04-30T12:05:17.506Z,38.49
2023-04-30T12:07:49.134Z,37.87
2023-04-30T12:10:16.173Z,38.24
2023-04-30T12:12:43.679Z,38.06
2023-04-30T12:15:13.886Z,37.80
2023-04-30T12:17:40.656Z,38.76
2023-04-30T12:20:09.337Z,38.13
2023-04-30T12:22:36.707Z,37.09
2023-04-30T12:25:09.454Z,36.79
2023-04-30T12:27:36.604Z,37.88
2023-04-30T12:30:08.075Z,37.52
2023-04-30T12:32:39.886Z,36.82
2023-04-30T12:35:06.955Z,36.24
2023-04-30T12:37:33.698Z,35.52
2023-04-30T12:40:00.353Z,35.56
2023-04-30T12:42:33.120Z,34.03
2023-04-30T12:44:59.721Z,34.32
2023-04-30T12:47:26.279Z,34.26
2023-04-30T12:49:52.980Z,33.51
2023-04-30T12:52:24.537Z,32.45
2023-04-30T12:54:50.971Z,32.64
2023-04-30T12:57:17.381Z,32.07
2023-04-30T12:59:49.852Z,31.43
2023-04-30T13:02:16.313Z,30.61
2023-04-30T13:04:43.755Z,30.48
2023-04-30T13:07:10.799Z,29.14
2023-04-30T13:09:38.051Z,28.84
2023-04-30T13:12:04.672Z,28.39
2023-04-30T13:14:31.972Z,27.80
2023-04-30T13:16:58.806Z,27.90
2023-04-30T13:19:25.662Z,26.96
2023-04-30T13:21:52.376Z,27.20
2023-04-30T13:24:18.989Z,28.00
2023-04-30T13:26:45.376Z,29.27
2023-04-30T13:29:11.896Z,30.41
2023-04-30T13:31:38.472Z,30.42
2023-04-30T13:34:05.063Z,29.88
2023-04-30T13:36:31.471Z,28.83
2023-04-30T13:38:58.436Z,28.93
2023-04-30T13:41:26.041Z,28.49
2023-04-30T13:43:52.664Z,27.81
2023-04-30T13:46:19.162Z,28.66
2023-04-30T13:48:48.203Z,28.99
2023-04-30T13:51:14.654Z,28.03
2023-04-30T13:53:41.053Z,28.25
2023-04-30T13:56:07.479Z,27.21
2023-04-30T13:58:33.963Z,26.92
2023-04-30T14:01:00.489Z,27.26
2023-04-30T14:03:27.132Z,26.36
2023-04-30T14:05:54.861Z,25.25
2023-04-30T14:08:23.302Z,24.45
2023-04-30T14:10:50.121Z,24.05
2023-04-30T14:13:16.606Z,24.63
2023-04-30T14:15:43.023Z,24.75
2023-04-30T14:18:09.490Z,24.89
2023-04-30T14:20:35.894Z,24.47
2023-04-30T14:23:03.658Z,24.40
2023-04-30T14:25:30.162Z,24.68
2023-04-30T14:27:56.602Z,24.84
2023-04-30T14:30:23.110Z,23.66
2023-04-30T14:32:49.578Z,23.76
2023-04-30T14:35:16.165Z,24.09
2023-04-30T14:37:42.637Z,23.46
2023-04-30T14:40:09.595Z,24.31
2023-04-30T14:42:35.998Z,23.54
2023-04-30T14:45:02.830Z,23.57
2023-04-30T14:47:29.375Z,23.50
2023-04-30T14:49:58.739Z,22.91
2023-04-30T14:52:25.292Z,23.50
2023-04-30T14:54:51.768Z,24.37
2023-04-30T14:57:18.904Z,24.55
2023-04-30T14:59:45.370Z,25.39
2023-04-30T15:02:11.874Z,25.35
2023-04-30T15:04:38.330Z,24.91
2023-04-30T15:07:04.737Z,25.25
2023-04-30T15:09:31.326Z,25.47
2023-04-30T15:11:57.888Z,25.77
2023-04-30T15:14:24.315Z,24.76
2023-04-30T15:16:51.323Z,24.50
2023-04-30T15:19:17.760Z,24.79
2023-04-30T15:21:44.970Z,24.37
2023-04-30T15:24:13.860Z,24.81
2023-04-30T15:26:40.971Z,25.01
2023-04-30T15:29:07.662Z,24.80
2023-04-30T15:31:35.266Z,25.24
2023-04-30T15:34:02.051Z,25.51
2023-04-30T15:36:28.565Z,24.93
2023-04-30T15:38:54.997Z,25.84
2023-04-30T15:41:22.133Z,25.30
2023-04-30T15:43:48.579Z,25.67
2023-04-30T15:46:15.235Z,25.97
2023-04-30T15:48:41.718Z,26.70
2023-04-30T15:51:08.903Z,27.97
2023-04-30T15:53:35.336Z,27.45
2023-04-30T15:56:04.257Z,28.78
2023-04-30T15:58:31.016Z,28.49
2023-04-30T16:00:57.475Z,28.01
2023-04-30T16:03:24.031Z,27.26
2023-04-30T16:05:50.575Z,27.79
2023-04-30T16:08:17.234Z,26.88
2023-04-30T16:10:44.264Z,27.27
2023-04-30T16:13:10.747Z,28.28
2023-04-30T16:15:37.259Z,27.90
2023-04-30T16:18:03.815Z,27.46
2023-04-30T16:20:31.418Z,28.38
2023-04-30T16:22:58.205Z,28.32
2023-04-30T16:25:24.709Z,29.21
2023-04-30T16:27:51.678Z,29.82
2023-04-30T16:30:18.132Z,29.15
2023-04-30T16:32:44.724Z,28.97
2023-04-30T16:35:11.283Z,28.97
2023-04-30T16:37:37.683Z,29.26
2023-04-30T16:40:06.316Z,29.68
2023-04-30T16:42:33.779Z,29.98
2023-04-30T16:45:00.250Z,30.41
2023-04-30T16:47:26.800Z,30.73
2023-04-30T16:49:53.634Z,31.13
2023-04-30T16:52:20.484Z,30.75
2023-04-30T16:54:46.933Z,30.56
2023-04-30T16:57:13.556Z,30.08
2023-04-30T16:59:39.950Z,30.15
2023-04-30T17:02:06.843Z,29.69
2023-04-30T17:04:33.611Z,29.44
2023-04-30T17:07:00.459Z,29.76
2023-04-30T17:09:26.862Z,31.16
2023-04-30T17:11:53.321Z,30.71
2023-04-30T17:14:19.745Z,31.65
2023-04-30T17:16:46.979Z,31.69
2023-04-30T17:19:13.719Z,32.51
2023-04-30T17:21:40.158Z,33.07
2023-04-30T17:24:06.641Z,33.85
2023-04-30T17:26:33.533Z,34.89
2023-04-30T17:29:00.005Z,36.02
2023-04-30T17:31:26.873Z,36.74
2023-04-30T17:33:53.440Z,37.23
2023-04-30T17:36:20.004Z,37.91
2023-04-30T17:38:46.503Z,38.70
2023-04-30T17:41:13.027Z,38.62
2023-04-30T17:43:39.563Z,38.84
2023-04-30T17:46:06.090Z,39.64
2023-04-30T17:48:32.648Z,40.21
2023-04-30T17:50:59.131Z,40.43
2023-04-30T17:53:25.565Z,39.95
2023-04-30T17:55:52.338Z,40.96
2023-04-30T17:58:18.755Z,40.57
2023-04-30T18:00:45.569Z,41.12
2023-04-30T18:03:12.042Z,40.97
2023-04-30T18:05:39.536Z,41.44
2023-04-30T18:08:06.617Z,40.70
2023-04-30T18:10:33.131Z,41.53
2023-04-30T18:12:59.637Z,41.30
2023-04-30T18:15:27.061Z,41.79
2023-04-30T18:17:53.866Z,42.01
2023-04-30T18:20:23.926Z,42.36
2023-04-30T18:22:50.651Z,43.34
2023-04-30T18:25:18.811Z,43.76
2023-04-30T18:27:45.289Z,44.09
2023-04-30T18:30:12.710Z,43.75
2023-04-30T18:32:39.502Z,43.20
2023-04-30T18:35:06.403Z,43.75
2023-04-30T18:37:32.883Z,43.29
2023-04-30T18:40:00.467Z,43.18
2023-04-30T18:42:27.187Z,44.49
2023-04-30T18:44:54.229Z,43.72
2023-04-30T18:47:21.729Z,44.57
2023-04-30T18:49:48.137Z,45.28
2023-04-30T18:52:14.596Z,45.47
2023-04-30T18:54:42.361Z,46.03
2023-04-30T18:57:12.289Z,46.85
2023-04-30T18:59:39.548Z,47.08
2023-04-30T19:02:06.360Z,46.96
2023-04-30T19:04:32.859Z,47.20
2023-04-30T19:06:59.301Z,47.41
2023-04-30T19:09:25.709Z,47.62
2023-04-30T19:11:53.198Z,48.01
2023-04-30T19:14:19.778Z,48.36
2023-04-30T19:16:46.276Z,48.40
2023-04-30T19:19:12.985Z,48.40
2023-04-30T19:21:39.424Z,48.59
2023-04-30T19:24:06.010Z,49.13
2023-04-30T19:26:32.839Z,49.44
2023-04-30T19:28:59.839Z,49.80
2023-04-30T19:31:26.738Z,50.07
2023-04-30T19:33:53.332Z,49.97
2023-04-30T19:36:19.819Z,50.40
2023-04-30T19:38:46.223Z,50.39
2023-04-30T19:41:12.692Z,51.20
2023-04-30T19:43:39.432Z,50.95
2023-04-30T19:46:05.950Z,51.12
2023-04-30T19:48:32.487Z,51.59
2023-04-30T19:50:59.037Z,52.10
2023-04-30T19:53:25.755Z,52.13
2023-04-30T19:55:55.052Z,52.08
2023-04-30T19:58:21.584Z,52.38
2023-04-30T20:00:48.048Z,52.78
2023-04-30T20:03:17.370Z,53.38
2023-04-30T20:05:44.500Z,52.47
2023-04-30T20:08:11.107Z,52.70
2023-04-30T20:10:38.419Z,52.90
2023-04-30T20:13:05.709Z,53.38
2023-04-30T20:15:32.767Z,53.29
2023-04-30T20:18:01.057Z,53.35
2023-04-30T20:20:28.420Z,53.57
2023-04-30T20:22:55.534Z,53.92
2023-04-30T20:25:23.173Z,54.38
2023-04-30T20:27:49.652Z,54.57
2023-04-30T20:30:16.263Z,54.91
2023-04-30T20:32:42.929Z,54.60
2023-04-30T20:35:09.678Z,54.48
2023-04-30T20:37:37.181Z,55.12
2023-04-30T20:40:04.409Z,55.07
2023-04-30T20:42:31.010Z,55.31
2023-04-30T20:44:57.510Z,55.57
2023-04-30T20:47:23.987Z,55.33
2023-04-30T20:49:51.118Z,55.67
2023-04-30T20:52:17.662Z,55.68
2023-04-30T20:54:44.126Z,55.70
2023-04-30T20:57:10.636Z,55.85
2023-04-30T20:59:37.420Z,56.09
2023-04-30T21:02:04.371Z,56.28
2023-04-30T21:04:31.244Z,56.23
2023-04-30T21:06:57.698Z,56.23
2023-04-30T21:09:24.164Z,56.12
2023-04-30T21:11:50.832Z,56.81
2023-04-30T21:14:17.452Z,57.11
2023-04-30T21:16:44.622Z,56.47
2023-04-30T21:19:11.160Z,56.67
2023-04-30T21:21:37.617Z,57.26
2023-04-30T21:24:05.099Z,56.95
2023-04-30T21:26:31.651Z,57.48
2023-04-30T21:28:58.213Z,57.31
2023-04-30T21:31:24.878Z,57.25
2023-04-30T21:33:51.488Z,57.34
2023-04-30T21:36:18.169Z,57.48
2023-04-30T21:38:44.826Z,57.96
2023-04-30T21:41:15.384Z,58.89
2023-04-30T21:43:42.132Z,58.41
2023-04-30T21:46:08.622Z,58.38
2023-04-30T21:48:35.404Z,57.98
2023-04-30T21:51:01.898Z,58.52
2023-04-30T21:53:28.354Z,58.48
2023-04-30T21:55:54.840Z,58.69
2023-04-30T21:58:21.247Z,58.96
2023-04-30T22:00:47.696Z,58.91
2023-04-30T22:03:15.904Z,59.26
2023-04-30T22:05:43.320Z,59.60
2023-04-30T22:08:09.760Z,59.49
2023-04-30T22:10:36.486Z,59.88
2023-04-30T22:13:02.862Z,59.98
2023-04-30T22:15:40.701Z,60.29
2023-04-30T22:18:13.345Z,60.56
2023-04-30T22:20:39.783Z,60.76
2023-04-30T22:23:06.633Z,60.38
2023-04-30T22:25:33.318Z,60.51
2023-04-30T22:27:59.712Z,60.73
2023-04-30T22:30:26.384Z,60.83
2023-04-30T22:32:56.707Z,61.83
2023-04-30T22:35:23.471Z,61.34
2023-04-30T22:37:50.116Z,61.23
2023-04-30T22:40:16.697Z,61.72
2023-04-30T22:42:43.525Z,61.72
2023-04-30T22:45:10.378Z,61.59
2023-04-30T22:47:37.257Z,61.41
2023-04-30T22:50:04.072Z,61.83
2023-04-30T22:52:31.970Z,61.92
2023-04-30T22:55:00.235Z,62.30
2023-04-30T22:57:27.018Z,62.11
2023-04-30T22:59:54.126Z,61.96
2023-04-30T23:02:20.781Z,61.92
2023-04-30T23:04:47.224Z,62.00
2023-04-30T23:07:13.682Z,62.10
2023-04-30T23:09:40.134Z,62.28
2023-04-30T23:12:06.530Z,62.28
2023-04-30T23:14:33.005Z,61.98
2023-04-30T23:17:00.616Z,62.17
2023-04-30T23:19:27.380Z,62.29
2023-04-30T23:21:53.925Z,62.13
2023-04-30T23:24:20.355Z,62.45
2023-04-30T23:26:47.235Z,62.72
2023-04-30T23:29:14.664Z,62.93
2023-04-30T23:31:41.217Z,63.03
2023-04-30T23:34:07.735Z,63.04
2023-04-30T23:36:34.149Z,63.13
2023-04-30T23:39:00.552Z,63.35
2023-04-30T23:41:27.059Z,63.57
2023-04-30T23:43:53.531Z,63.92
2023-04-30T23:46:20.550Z,64.00
2023-04-30T23:48:47.124Z,64.26
2023-04-30T23:51:13.604Z,64.13
2023-04-30T23:53:40.624Z,64.61
2023-04-30T23:56:08.414Z,64.33
2023-04-30T23:58:34.968Z,64.76
